Time;durP1;ratioP1;P1;durP2;ratioP2;P2;SDS_P1;SDS_P2;PMS_P1;PMS_P2;Temp;Humidity;BMP_temperature;BMP_pressure;BME280_temperature;BME280_humidity;BME280_pressure;Samples;Min_cycle;Max_cycle;Signal;HPM_P1;HPM_P2
2022/08/28 00:00:18;;;;;;;4.68;1.20;;;;;;;-148.16;100.00;58328.31;5053153;28;20064;-58
2022/08/28 00:03:09;;;;;;;2.53;1.00;;;;;;;-148.16;100.00;58328.31;5036265;28;20500;-59
2022/08/28 00:05:53;;;;;;;3.50;1.27;;;;;;;-148.16;100.00;58328.31;5057976;28;20446;-59
2022/08/28 00:08:38;;;;;;;3.22;1.25;;;;;;;-148.16;100.00;58328.31;5032820;28;20057;-60
2022/08/28 00:11:23;;;;;;;2.72;1.13;;;;;;;-148.16;100.00;58328.31;5042302;28;20083;-58
2022/08/28 00:14:10;;;;;;;5.13;1.30;;;;;;;-148.16;100.00;58328.31;5004573;28;20052;-59
2022/08/28 00:16:55;;;;;;;1.80;1.10;;;;;;;-148.16;100.00;58328.31;5016343;28;20366;-59
2022/08/28 00:19:42;;;;;;;2.95;1.23;;;;;;;-148.16;100.00;58328.31;5034024;28;20071;-58
2022/08/28 00:22:27;;;;;;;2.40;1.00;;;;;;;-148.16;100.00;58328.31;5042269;28;20053;-59
2022/08/28 00:25:13;;;;;;;4.32;1.33;;;;;;;-148.16;100.00;58328.31;5019563;28;20041;-59
2022/08/28 00:28:06;;;;;;;1.98;1.10;;;;;;;-148.16;100.00;58328.31;5035713;28;20068;-59
2022/08/28 00:30:54;;;;;;;2.42;1.10;;;;;;;-148.16;100.00;58328.31;5039050;28;20127;-63
2022/08/28 00:33:39;;;;;;;2.75;1.10;;;;;;;-148.16;100.00;58328.31;5028558;28;20048;-58
2022/08/28 00:36:24;;;;;;;6.65;1.48;;;;;;;-148.16;100.00;58328.31;5036788;28;20120;-59
2022/08/28 00:39:09;;;;;;;2.92;1.00;;;;;;;-148.16;100.00;58328.31;5028558;28;20041;-58
2022/08/28 00:41:54;;;;;;;4.15;1.20;;;;;;;-148.16;100.00;58328.31;5016331;28;20049;-58
2022/08/28 00:44:39;;;;;;;2.72;1.10;;;;;;;-148.16;100.00;58328.31;5018435;28;20075;-58
2022/08/28 00:47:25;;;;;;;2.20;1.13;;;;;;;-148.16;100.00;58328.31;5039881;28;20053;-58
2022/08/28 00:50:16;;;;;;;3.28;1.40;;;;;;;-148.16;100.00;58328.31;5035980;28;20488;-58
2022/08/28 00:53:01;;;;;;;3.40;1.20;;;;;;;-148.16;100.00;58328.31;5041002;28;20034;-58
2022/08/28 00:55:45;;;;;;;2.92;1.30;;;;;;;-148.16;100.00;58328.31;5038408;28;20055;-58
2022/08/28 00:58:30;;;;;;;3.78;1.23;;;;;;;-148.16;100.00;58328.31;5060713;28;20107;-59
2022/08/28 01:01:17;;;;;;;2.22;0.90;;;;;;;-148.16;100.00;58328.31;5035897;28;20038;-59
2022/08/28 01:04:04;;;;;;;2.22;1.20;;;;;;;-148.16;100.00;58328.31;5030473;28;20053;-58
2022/08/28 01:06:52;;;;;;;3.28;1.30;;;;;;;-148.16;100.00;58328.31;5038251;28;20119;-58
2022/08/28 01:09:41;;;;;;;3.13;1.30;;;;;;;-148.16;100.00;58328.31;5035961;28;20051;-58
2022/08/28 01:12:28;;;;;;;4.28;1.52;;;;;;;-148.16;100.00;58328.31;5047488;28;20037;-58
2022/08/28 01:15:16;;;;;;;4.55;1.65;;;;;;;-148.16;100.00;58328.31;5047287;28;20049;-58
2022/08/28 01:18:05;;;;;;;3.10;0.80;;;;;;;-148.16;100.00;58328.31;5034376;28;20068;-57
2022/08/28 01:21:33;;;;;;;4.53;1.02;;;;;;;-148.16;100.00;58328.31;5034076;28;20591;-58
2022/08/28 01:24:19;;;;;;;5.80;1.05;;;;;;;-148.16;100.00;58328.31;5029852;28;20452;-58
2022/08/28 01:27:04;;;;;;;2.95;1.20;;;;;;;-148.16;100.00;58328.31;5040506;28;20049;-61
2022/08/28 01:29:49;;;;;;;3.70;1.05;;;;;;;-148.16;100.00;58328.31;5047238;28;20033;-58
2022/08/28 01:32:41;;;;;;;4.38;1.40;;;;;;;-148.16;100.00;58328.31;5040854;28;20047;-58
2022/08/28 01:35:30;;;;;;;4.05;1.30;;;;;;;-148.16;100.00;58328.31;5052363;28;20063;-59
2022/08/28 01:38:15;;;;;;;2.10;1.10;;;;;;;-148.16;100.00;58328.31;5035691;28;20389;-58
2022/08/28 01:41:00;;;;;;;2.30;1.25;;;;;;;-148.16;100.00;58328.31;5033420;28;20171;-61
2022/08/28 01:43:45;;;;;;;2.72;1.25;;;;;;;-148.16;100.00;58328.31;5042090;28;20536;-58
2022/08/28 01:46:30;;;;;;;3.00;0.90;;;;;;;-148.16;100.00;58328.31;5031211;28;20041;-58
2022/08/28 01:49:14;;;;;;;1.88;1.00;;;;;;;-148.16;100.00;58328.31;5032865;28;20124;-58
2022/08/28 01:51:59;;;;;;;1.95;1.00;;;;;;;-148.16;100.00;58328.31;5032026;28;20124;-58
2022/08/28 01:54:43;;;;;;;2.40;1.17;;;;;;;-148.16;100.00;58328.31;5032202;28;20034;-58
2022/08/28 01:57:28;;;;;;;1.73;1.00;;;;;;;-148.16;100.00;58328.31;5032869;28;20120;-58
2022/08/28 02:00:14;;;;;;;1.92;1.00;;;;;;;-148.16;100.00;58328.31;5068825;28;20098;-58
2022/08/28 02:03:00;;;;;;;2.13;0.90;;;;;;;-148.16;100.00;58328.31;5040473;28;20051;-58
2022/08/28 02:05:45;;;;;;;3.08;1.30;;;;;;;-148.16;100.00;58328.31;5039185;28;20045;-58
2022/08/28 02:08:30;;;;;;;2.75;0.90;;;;;;;-148.16;100.00;58328.31;5040334;28;20077;-58
2022/08/28 02:11:15;;;;;;;1.92;1.08;;;;;;;-148.16;100.00;58328.31;5034401;28;20477;-58
2022/08/28 02:14:01;;;;;;;3.00;1.30;;;;;;;-148.16;100.00;58328.31;5039009;28;20105;-58
2022/08/28 02:16:46;;;;;;;2.03;0.75;;;;;;;-148.16;100.00;58328.31;5041457;28;20034;-58
2022/08/28 02:19:31;;;;;;;2.35;0.88;;;;;;;-148.16;100.00;58328.31;5033625;28;20477;-58
2022/08/28 02:22:15;;;;;;;2.28;1.00;;;;;;;-148.16;100.00;58328.31;5043753;28;20116;-58
2022/08/28 02:25:02;;;;;;;3.75;1.00;;;;;;;-148.16;100.00;58328.31;5032664;28;20034;-58
2022/08/28 02:27:48;;;;;;;2.90;1.25;;;;;;;-148.16;100.00;58328.31;5030950;28;20459;-58
2022/08/28 02:30:33;;;;;;;4.25;1.02;;;;;;;-148.16;100.00;58328.31;5034494;28;20037;-58
2022/08/28 02:33:18;;;;;;;2.15;0.95;;;;;;;-148.16;100.00;58328.31;5034904;28;20033;-58
2022/08/28 02:36:03;;;;;;;4.20;1.30;;;;;;;-148.16;100.00;58328.31;5046280;28;20034;-57
2022/08/28 02:38:47;;;;;;;4.30;1.23;;;;;;;-148.16;100.00;58328.31;5032730;28;20120;-59
2022/08/28 02:41:32;;;;;;;4.13;1.33;;;;;;;-148.16;100.00;58328.31;5033084;28;20128;-57
2022/08/28 02:44:16;;;;;;;2.83;1.35;;;;;;;-148.16;100.00;58328.31;5052543;28;20040;-58
2022/08/28 02:47:02;;;;;;;3.22;1.52;;;;;;;-148.16;100.00;58328.31;5035047;28;20554;-58
2022/08/28 02:49:46;;;;;;;2.65;1.20;;;;;;;-148.16;100.00;58328.31;5031783;28;20048;-59
2022/08/28 02:52:31;;;;;;;1.92;1.05;;;;;;;-148.16;100.00;58328.31;5044808;28;20545;-59
2022/08/28 02:55:18;;;;;;;2.88;0.93;;;;;;;-148.16;100.00;58328.31;5032268;28;20051;-59
2022/08/28 02:58:02;;;;;;;3.45;1.48;;;;;;;-148.16;100.00;58328.31;5042436;28;20465;-59
2022/08/28 03:00:47;;;;;;;3.30;1.35;;;;;;;-148.16;100.00;58328.31;5031924;28;20073;-58
2022/08/28 03:03:32;;;;;;;3.75;1.10;;;;;;;-148.16;100.00;58328.31;5037006;28;20040;-58
2022/08/28 03:06:16;;;;;;;2.65;0.90;;;;;;;-148.16;100.00;58328.31;5043758;28;20045;-59
2022/08/28 03:09:00;;;;;;;5.45;1.20;;;;;;;-148.16;100.00;58328.31;5031141;28;20110;-66
2022/08/28 03:11:45;;;;;;;3.80;1.30;;;;;;;-148.16;100.00;58328.31;5032369;28;20058;-58
2022/08/28 03:14:30;;;;;;;2.55;1.17;;;;;;;-148.16;100.00;58328.31;5043076;28;20473;-58
2022/08/28 03:17:14;;;;;;;1.20;0.90;;;;;;;-148.16;100.00;58328.31;5032248;28;20132;-58
2022/08/28 03:19:59;;;;;;;2.95;1.02;;;;;;;-148.16;100.00;58328.31;5031667;28;20116;-58
2022/08/28 03:25:46;;;;;;;3.65;1.20;;;;;;;-148.16;100.00;58328.31;5032841;28;20069;-58
2022/08/28 03:28:40;;;;;;;2.33;1.30;;;;;;;-148.16;100.00;58328.31;5031957;28;20396;-58
2022/08/28 03:31:27;;;;;;;4.65;1.45;;;;;;;-148.16;100.00;58328.31;5046841;28;20131;-58
2022/08/28 03:34:12;;;;;;;3.28;1.50;;;;;;;-148.16;100.00;58328.31;5037071;28;20037;-58
2022/08/28 03:36:56;;;;;;;4.38;1.65;;;;;;;-148.16;100.00;58328.31;5038845;28;20128;-58
2022/08/28 03:39:41;;;;;;;3.28;1.40;;;;;;;-148.16;100.00;58328.31;5031911;28;20107;-58
2022/08/28 03:42:26;;;;;;;2.53;1.35;;;;;;;-148.16;100.00;58328.31;5047066;28;20076;-58
2022/08/28 03:45:10;;;;;;;4.30;1.27;;;;;;;-148.16;100.00;58328.31;5035875;28;20056;-58
2022/08/28 03:47:55;;;;;;;2.78;1.30;;;;;;;-148.16;100.00;58328.31;5031936;28;20052;-58
2022/08/28 03:50:40;;;;;;;3.45;1.30;;;;;;;-148.16;100.00;58328.31;5030548;28;20053;-58
2022/08/28 03:53:28;;;;;;;2.70;1.40;;;;;;;-148.16;100.00;58328.31;5031285;28;20041;-58
2022/08/28 03:56:16;;;;;;;3.08;1.30;;;;;;;-148.16;100.00;58328.31;5031446;28;20479;-58
2022/08/28 03:59:03;;;;;;;4.10;1.00;;;;;;;-148.16;100.00;58328.31;5031444;28;20044;-58
2022/08/28 04:01:48;;;;;;;2.38;0.88;;;;;;;-148.16;100.00;58328.31;5044886;28;20037;-58
2022/08/28 04:04:33;;;;;;;3.17;0.95;;;;;;;-148.16;100.00;58328.31;5040385;28;20118;-58
2022/08/28 04:07:18;;;;;;;4.13;1.27;;;;;;;-148.16;100.00;58328.31;5040121;28;20124;-58
2022/08/28 04:10:04;;;;;;;3.55;1.20;;;;;;;-148.16;100.00;58328.31;5039963;28;20476;-58
2022/08/28 04:12:48;;;;;;;1.50;0.85;;;;;;;-148.16;100.00;58328.31;5033123;28;20116;-58
2022/08/28 04:15:33;;;;;;;2.38;1.10;;;;;;;-148.16;100.00;58328.31;5031545;28;20041;-58
2022/08/28 04:18:17;;;;;;;5.68;1.00;;;;;;;-148.16;100.00;58328.31;5042414;28;20045;-58
2022/08/28 04:21:06;;;;;;;1.63;1.10;;;;;;;-148.16;100.00;58328.31;5033266;28;20045;-58
2022/08/28 04:23:51;;;;;;;3.15;0.95;;;;;;;-148.16;100.00;58328.31;5037124;28;20441;-58
2022/08/28 04:26:36;;;;;;;3.42;1.13;;;;;;;-148.16;100.00;58328.31;5038050;28;20056;-58
2022/08/28 04:29:21;;;;;;;1.20;0.73;;;;;;;-148.16;100.00;58328.31;5032859;28;20037;-58
2022/08/28 04:32:06;;;;;;;2.15;0.98;;;;;;;-148.16;100.00;58328.31;5042868;28;20037;-58
2022/08/28 04:34:51;;;;;;;4.03;1.17;;;;;;;-148.16;100.00;58328.31;5038889;28;20404;-58
2022/08/28 04:37:36;;;;;;;2.92;1.23;;;;;;;-148.16;100.00;58328.31;5037267;28;20061;-58
2022/08/28 04:40:20;;;;;;;3.13;1.30;;;;;;;-148.16;100.00;58328.31;5044754;28;20120;-58
2022/08/28 04:43:05;;;;;;;3.70;0.95;;;;;;;-148.16;100.00;58328.31;5030108;28;20144;-58
2022/08/28 04:45:50;;;;;;;1.55;0.90;;;;;;;-148.16;100.00;58328.31;5032136;28;20485;-58
2022/08/28 04:48:35;;;;;;;1.52;1.10;;;;;;;-148.16;100.00;58328.31;5044572;28;20434;-58
2022/08/28 04:51:20;;;;;;;2.00;1.00;;;;;;;-148.16;100.00;58328.31;5051442;28;20048;-58
2022/08/28 04:54:04;;;;;;;2.42;1.10;;;;;;;-148.16;100.00;58328.31;5035385;28;20034;-58
2022/08/28 04:56:50;;;;;;;2.40;0.95;;;;;;;-148.16;100.00;58328.31;5045247;28;20145;-58
2022/08/28 04:59:35;;;;;;;2.83;0.90;;;;;;;-148.16;100.00;58328.31;5038174;28;20503;-58
2022/08/28 05:02:20;;;;;;;3.22;1.10;;;;;;;-148.16;100.00;58328.31;5036329;28;20105;-59
2022/08/28 05:05:05;;;;;;;2.78;1.30;;;;;;;-148.16;100.00;58328.31;5047596;28;20064;-58
2022/08/28 05:07:49;;;;;;;3.85;1.23;;;;;;;-148.16;100.00;58328.31;5038870;28;20476;-58
2022/08/28 05:10:34;;;;;;;2.80;1.20;;;;;;;-148.16;100.00;58328.31;5036037;28;20416;-58
2022/08/28 05:13:19;;;;;;;3.28;1.10;;;;;;;-148.16;100.00;58328.31;5048828;28;20152;-58
2022/08/28 05:16:05;;;;;;;3.33;1.17;;;;;;;-148.16;100.00;58328.31;5038434;28;20052;-58
2022/08/28 05:18:49;;;;;;;2.70;1.20;;;;;;;-148.16;100.00;58328.31;5047764;28;20099;-58
2022/08/28 05:21:34;;;;;;;1.00;0.90;;;;;;;-148.16;100.00;58328.31;5038182;28;20048;-58
2022/08/28 05:24:20;;;;;;;3.03;1.17;;;;;;;-148.16;100.00;58328.31;5038354;28;20037;-58
2022/08/28 05:27:06;;;;;;;3.17;1.13;;;;;;;-148.16;100.00;58328.31;5039244;28;20061;-58
2022/08/28 05:29:51;;;;;;;4.22;1.10;;;;;;;-148.16;100.00;58328.31;5034926;28;20045;-58
2022/08/28 05:32:36;;;;;;;2.83;1.08;;;;;;;-148.16;100.00;58328.31;5035421;28;20489;-58
2022/08/28 05:35:21;;;;;;;1.98;0.98;;;;;;;-148.16;100.00;58328.31;5046672;28;20055;-58
2022/08/28 05:38:06;;;;;;;1.65;0.82;;;;;;;-148.16;100.00;58328.31;5034308;28;20041;-58
2022/08/28 05:40:50;;;;;;;2.05;0.88;;;;;;;-148.16;100.00;58328.31;5036336;28;20041;-58
2022/08/28 05:43:35;;;;;;;1.48;1.10;;;;;;;-148.16;100.00;58328.31;5040786;28;20428;-58
2022/08/28 05:46:21;;;;;;;1.30;0.80;;;;;;;-148.16;100.00;58328.31;5045512;28;20041;-58
2022/08/28 05:49:07;;;;;;;2.97;1.10;;;;;;;-148.16;100.00;58328.31;5050105;28;20443;-58
2022/08/28 05:51:52;;;;;;;2.60;1.50;;;;;;;-148.16;100.00;58328.31;5035055;28;20638;-59
2022/08/28 05:54:36;;;;;;;1.60;0.90;;;;;;;-148.16;100.00;58328.31;5036373;28;20289;-59
2022/08/28 05:57:21;;;;;;;6.15;1.98;;;;;;;-148.16;100.00;58328.31;5035185;28;20443;-58
2022/08/28 06:00:11;;;;;;;4.10;1.70;;;;;;;-148.16;100.00;58328.31;5043584;28;20072;-58
2022/08/28 06:02:55;;;;;;;1.77;1.08;;;;;;;-148.16;100.00;58328.31;5039015;28;20034;-58
2022/08/28 06:05:40;;;;;;;3.80;1.63;;;;;;;-148.16;100.00;58328.31;5031863;28;20400;-59
2022/08/28 06:08:28;;;;;;;2.50;1.65;;;;;;;-148.16;100.00;58328.31;5032569;28;20049;-58
2022/08/28 06:11:13;;;;;;;2.17;1.42;;;;;;;-148.16;100.00;58328.31;5030186;28;20065;-58
2022/08/28 06:14:00;;;;;;;2.10;1.20;;;;;;;-148.16;100.00;58328.31;5024852;28;20041;-58
2022/08/28 06:16:52;;;;;;;2.22;1.05;;;;;;;-148.16;100.00;58328.31;5033766;28;20052;-58
2022/08/28 06:19:36;;;;;;;;;;;;;;;-148.16;100.00;58328.31;5047027;28;20499;-58
2022/08/28 06:22:21;;;;;;;2.85;1.38;;;;;;;-148.16;100.00;58328.31;5047834;28;20008;-58
2022/08/28 06:25:06;;;;;;;1.75;1.25;;;;;;;-148.16;100.00;58328.31;5032991;28;20469;-59
2022/08/28 06:27:51;;;;;;;2.60;1.60;;;;;;;-148.16;100.00;58328.31;5043129;28;20121;-58
2022/08/28 06:30:37;;;;;;;1.98;1.10;;;;;;;-148.16;100.00;58328.31;5043681;28;20051;-59
2022/08/28 06:33:23;;;;;;;3.50;1.33;;;;;;;-148.16;100.00;58328.31;5034602;28;20421;-58
2022/08/28 06:36:07;;;;;;;2.45;1.17;;;;;;;-148.16;100.00;58328.31;5044020;28;20045;-59
2022/08/28 06:38:54;;;;;;;2.40;1.10;;;;;;;-148.16;100.00;58328.31;5045890;28;20041;-59
2022/08/28 06:41:41;;;;;;;2.05;1.15;;;;;;;-148.16;100.00;58328.31;5031630;28;20068;-58
2022/08/28 06:44:26;;;;;;;1.73;1.10;;;;;;;-148.16;100.00;58328.31;5064127;28;20049;-59
2022/08/28 06:47:11;;;;;;;2.95;1.20;;;;;;;-148.16;100.00;58328.31;5035167;28;20388;-59
2022/08/28 06:49:57;;;;;;;1.63;1.08;;;;;;;-148.16;100.00;58328.31;5040368;28;20049;-59
2022/08/28 06:52:41;;;;;;;2.95;1.10;;;;;;;-148.16;100.00;58328.31;5040369;28;20041;-58
2022/08/28 06:55:26;;;;;;;2.03;1.20;;;;;;;-148.16;100.00;58328.31;5032930;28;20049;-58
2022/08/28 06:58:11;;;;;;;2.78;0.95;;;;;;;-148.16;100.00;58328.31;5031851;28;20037;-58
2022/08/28 07:01:17;;;;;;;3.90;1.90;;;;;;;-148.16;100.00;58328.31;5041954;28;20033;-58
2022/08/28 07:04:08;;;;;;;3.90;1.23;;;;;;;-148.16;100.00;58328.31;5026398;28;20045;-58
2022/08/28 07:06:53;;;;;;;4.95;1.98;;;;;;;-148.16;100.00;58328.31;5044578;28;20117;-59
2022/08/28 07:09:38;;;;;;;2.40;1.83;;;;;;;-148.16;100.00;58328.31;5026302;28;20045;-58
2022/08/28 07:12:23;;;;;;;4.28;2.33;;;;;;;-148.16;100.00;58328.31;5032663;28;20038;-58
2022/08/28 07:15:08;;;;;;;6.63;2.47;;;;;;;-148.16;100.00;58328.31;5070116;28;20049;-58
2022/08/28 07:17:53;;;;;;;4.60;2.22;;;;;;;-148.16;100.00;58328.31;5033315;28;20033;-58
2022/08/28 07:20:37;;;;;;;6.88;3.50;;;;;;;-148.16;100.00;58328.31;5033589;28;20049;-58
2022/08/28 07:23:23;;;;;;;6.13;3.58;;;;;;;-148.16;100.00;58328.31;5032472;28;20181;-57
2022/08/28 07:26:11;;;;;;;6.88;3.70;;;;;;;-148.16;100.00;58328.31;5059445;28;20099;-58
2022/08/28 07:28:56;;;;;;;6.60;3.10;;;;;;;-148.16;100.00;58328.31;5032242;28;20050;-58
2022/08/28 07:31:43;;;;;;;6.15;2.35;;;;;;;-148.16;100.00;58328.31;5037880;28;20466;-59
2022/08/28 07:34:27;;;;;;;5.10;3.38;;;;;;;-148.16;100.00;58328.31;5036873;28;20106;-58
2022/08/28 07:37:15;;;;;;;6.72;2.85;;;;;;;-148.16;100.00;58328.31;5043943;28;20057;-58
2022/08/28 07:40:00;;;;;;;5.95;3.50;;;;;;;-148.16;100.00;58328.31;5031060;28;20099;-59
2022/08/28 07:45:56;;;;;;;3.58;2.78;;;;;;;-148.16;100.00;58328.31;5051809;28;20045;-58
2022/08/28 07:48:41;;;;;;;4.82;2.70;;;;;;;-148.16;100.00;58328.31;5029833;28;20045;-59
2022/08/28 07:51:27;;;;;;;4.25;2.75;;;;;;;-148.16;100.00;58328.31;5030446;28;20187;-60
2022/08/28 07:54:12;;;;;;;6.13;2.67;;;;;;;-148.16;100.00;58328.31;5031682;28;20071;-60
2022/08/28 07:56:57;;;;;;;5.55;2.30;;;;;;;-148.16;100.00;58328.31;5034667;28;20033;-59
2022/08/28 07:59:41;;;;;;;4.28;2.30;;;;;;;-148.16;100.00;58328.31;5031624;28;20082;-58
2022/08/28 08:02:26;;;;;;;3.30;2.40;;;;;;;-148.16;100.00;58328.31;5032530;28;20088;-58
2022/08/28 08:05:11;;;;;;;6.38;2.90;;;;;;;-148.16;100.00;58328.31;5042096;28;20041;-59
2022/08/28 08:07:55;;;;;;;4.50;2.63;;;;;;;-148.16;100.00;58328.31;5036519;28;20045;-59
2022/08/28 08:10:40;;;;;;;3.65;1.95;;;;;;;-148.16;100.00;58328.31;5030471;28;20121;-58
2022/08/28 08:13:25;;;;;;;3.65;1.90;;;;;;;-148.16;100.00;58328.31;5043149;28;20122;-58
2022/08/28 08:16:13;;;;;;;7.07;2.50;;;;;;;-148.16;100.00;58328.31;5031605;28;20072;-59
2022/08/28 08:18:59;;;;;;;4.95;2.85;;;;;;;-148.16;100.00;58328.31;5030600;28;20382;-60
2022/08/28 08:21:47;;;;;;;3.78;2.65;;;;;;;-148.16;100.00;58328.31;5035908;28;20028;-58
2022/08/28 08:24:32;;;;;;;7.43;2.53;;;;;;;-148.16;100.00;58328.31;5043725;28;20120;-58
2022/08/28 08:27:17;;;;;;;4.95;2.25;;;;;;;-148.16;100.00;58328.31;5038730;28;20060;-58
2022/08/28 08:30:02;;;;;;;6.90;2.75;;;;;;;-148.16;100.00;58328.31;5038212;28;20060;-59
2022/08/28 08:32:47;;;;;;;4.38;2.95;;;;;;;-148.16;100.00;58328.31;5038079;28;20040;-58
2022/08/28 08:35:32;;;;;;;6.97;3.20;;;;;;;-148.16;100.00;58328.31;5042876;28;20123;-66
2022/08/28 08:38:19;;;;;;;5.57;2.53;;;;;;;-148.16;100.00;58328.31;5034414;28;20037;-59
2022/08/28 08:41:17;;;;;;;5.95;2.83;;;;;;;-148.16;100.00;58328.31;5057847;28;20538;-59
2022/08/28 08:44:11;;;;;;;4.50;2.63;;;;;;;-148.16;100.00;58328.31;5035391;28;20050;-58
2022/08/28 08:47:18;;;;;;;5.38;2.92;;;;;;;-148.16;100.00;58328.31;5036187;28;20532;-58
2022/08/28 08:50:05;;;;;;;3.20;2.00;;;;;;;-148.16;100.00;58328.31;5029172;28;20128;-59
2022/08/28 08:53:19;;;;;;;3.92;2.78;;;;;;;-148.16;100.00;58328.31;5033872;28;20495;-59
2022/08/28 08:56:05;;;;;;;4.82;2.42;;;;;;;-148.16;100.00;58328.31;5031271;28;20044;-58
2022/08/28 08:58:53;;;;;;;4.82;2.88;;;;;;;-148.16;100.00;58328.31;5064991;28;20045;-58
2022/08/28 09:01:43;;;;;;;5.70;3.00;;;;;;;-148.16;100.00;58328.31;5031307;28;20049;-59
2022/08/28 09:04:45;;;;;;;6.80;3.42;;;;;;;-148.16;100.00;58328.31;5032708;28;20041;-58
2022/08/28 09:07:41;;;;;;;4.45;2.53;;;;;;;-148.16;100.00;58328.31;5039752;28;20038;-59
2022/08/28 09:10:38;;;;;;;7.85;2.90;;;;;;;-148.16;100.00;58328.31;5035800;28;20396;-58
2022/08/28 09:13:33;;;;;;;4.35;3.03;;;;;;;-148.16;100.00;58328.31;5033580;28;21305;-59
2022/08/28 09:16:30;;;;;;;4.82;2.88;;;;;;;-148.16;100.00;58328.31;5033835;28;20044;-59
2022/08/28 09:19:18;;;;;;;4.93;3.03;;;;;;;-148.16;100.00;58328.31;5029656;28;20053;-59
2022/08/28 09:22:03;;;;;;;3.63;2.80;;;;;;;-148.16;100.00;58328.31;5048327;28;20384;-59
2022/08/28 09:24:48;;;;;;;4.70;2.83;;;;;;;-148.16;100.00;58328.31;5031104;28;20045;-59
2022/08/28 09:27:33;;;;;;;4.90;2.80;;;;;;;-148.16;100.00;58328.31;5063119;28;20037;-59
2022/08/28 09:30:29;;;;;;;5.65;3.42;;;;;;;-148.16;100.00;58328.31;5039487;28;20140;-59
2022/08/28 09:33:26;;;;;;;5.55;3.67;;;;;;;-148.16;100.00;58328.31;5043101;28;20125;-59
2022/08/28 09:36:32;;;;;;;4.78;2.83;;;;;;;-148.16;100.00;58328.31;5052866;28;20044;-60
2022/08/28 09:39:22;;;;;;;6.25;3.17;;;;;;;-148.16;100.00;58328.31;5033346;28;20433;-59
2022/08/28 09:45:23;;;;;;;3.92;2.67;;;;;;;-148.16;100.00;58328.31;5043296;28;20524;-60
2022/08/28 09:48:28;;;;;;;6.72;3.40;;;;;;;-148.16;100.00;58328.31;5037916;28;20049;-59
2022/08/28 09:51:20;;;;;;;3.47;2.85;;;;;;;-148.16;100.00;58328.31;5050592;28;20060;-60
2022/08/28 09:54:15;;;;;;;7.43;3.40;;;;;;;-148.16;100.00;58328.31;5048307;28;20033;-58
2022/08/28 09:57:02;;;;;;;3.85;2.70;;;;;;;-148.16;100.00;58328.31;5052742;28;20468;-60
2022/08/28 09:59:46;;;;;;;4.95;3.50;;;;;;;-148.16;100.00;58328.31;5037942;28;20060;-59
2022/08/28 10:03:13;;;;;;;4.45;2.45;;;;;;;-148.16;100.00;58328.31;5036873;28;20037;-58
2022/08/28 10:06:25;;;;;;;4.32;3.10;;;;;;;-148.16;100.00;58328.31;5017197;28;20081;-58
2022/08/28 10:09:39;;;;;;;3.60;2.45;;;;;;;-148.16;100.00;58328.31;5042344;28;20053;-59
2022/08/28 10:12:38;;;;;;;5.35;2.50;;;;;;;-148.16;100.00;58328.31;5050723;28;20642;-59
2022/08/28 10:15:35;;;;;;;5.33;3.00;;;;;;;-148.16;100.00;58328.31;5040313;28;20087;-59
2022/08/28 10:18:44;;;;;;;5.38;2.60;;;;;;;-148.16;100.00;58328.31;5047926;28;20041;-59
2022/08/28 10:21:31;;;;;;;5.88;2.55;;;;;;;-148.16;100.00;58328.31;5050124;28;20522;-59
2022/08/28 10:24:26;;;;;;;5.72;2.80;;;;;;;-148.16;100.00;58328.31;5050194;28;20052;-60
2022/08/28 10:27:40;;;;;;;5.13;2.55;;;;;;;-148.16;100.00;58328.31;5050395;28;20048;-60
2022/08/28 10:30:25;;;;;;;4.65;2.40;;;;;;;-148.16;100.00;58328.31;4991370;28;20116;-59
2022/08/28 10:33:30;;;;;;;3.38;2.08;;;;;;;-148.16;100.00;58328.31;4991280;28;20390;-59
2022/08/28 10:36:23;;;;;;;3.42;2.58;;;;;;;-148.16;100.00;58328.31;4990888;28;20137;-59
2022/08/28 10:39:13;;;;;;;3.80;2.72;;;;;;;-148.16;100.00;58328.31;4990673;28;20482;-59
2022/08/28 10:42:03;;;;;;;4.53;2.40;;;;;;;-148.16;100.00;58328.31;4974815;28;20070;-58
2022/08/28 10:44:57;;;;;;;5.95;3.40;;;;;;;-148.16;100.00;58328.31;5011108;28;20042;-59
2022/08/28 10:47:51;;;;;;;4.38;2.85;;;;;;;-148.16;100.00;58328.31;5011997;28;20042;-58
2022/08/28 10:50:53;;;;;;;4.38;2.33;;;;;;;-148.16;100.00;58328.31;5011202;28;20077;-59
2022/08/28 10:53:51;;;;;;;4.20;2.83;;;;;;;-148.16;100.00;58328.31;5011305;28;20038;-59
2022/08/28 10:56:45;;;;;;;5.65;2.78;;;;;;;-148.16;100.00;58328.31;5009666;28;20176;-57
2022/08/28 10:59:32;;;;;;;3.63;2.60;;;;;;;-148.16;100.00;58328.31;4996443;28;20057;-58
2022/08/28 11:02:21;;;;;;;5.75;2.58;;;;;;;-148.16;100.00;58328.31;4996523;28;20502;-59
2022/08/28 11:05:06;;;;;;;4.57;3.47;;;;;;;-148.16;100.00;58328.31;5010140;28;20046;-58
2022/08/28 11:07:55;;;;;;;5.93;2.90;;;;;;;-148.16;100.00;58328.31;5030178;28;20052;-59
2022/08/28 11:10:46;;;;;;;4.35;3.30;;;;;;;-148.16;100.00;58328.31;5047324;28;20094;-58
2022/08/28 11:13:52;;;;;;;;;;;;;;;-148.16;100.00;58328.31;5048201;28;20051;-59
2022/08/28 11:16:43;;;;;;;5.57;3.33;;;;;;;-148.16;100.00;58328.31;5031326;28;20047;-59
2022/08/28 11:20:14;;;;;;;3.92;2.78;;;;;;;-148.16;100.00;58328.31;5040675;28;20191;-59
2022/08/28 11:23:37;;;;;;;5.50;2.53;;;;;;;-148.16;100.00;58328.31;5047098;28;20047;-58
2022/08/28 11:26:40;;;;;;;3.67;2.80;;;;;;;-148.16;100.00;58328.31;4969936;28;20061;-59
2022/08/28 11:30:00;;;;;;;3.80;2.70;;;;;;;-148.16;100.00;58328.31;4969640;28;20205;-59
2022/08/28 11:32:50;;;;;;;7.20;3.05;;;;;;;-148.16;100.00;58328.31;4969894;28;20178;-59
2022/08/28 11:35:42;;;;;;;3.50;2.75;;;;;;;-148.16;100.00;58328.31;4968536;28;20394;-59
2022/08/28 11:38:39;;;;;;;4.68;2.80;;;;;;;-148.16;100.00;58328.31;4954920;28;20050;-59
2022/08/28 11:41:26;;;;;;;8.30;2.92;;;;;;;-148.16;100.00;58328.31;4960588;28;20055;-59
2022/08/28 11:47:33;;;;;;;3.05;2.30;;;;;;;-148.16;100.00;58328.31;4967183;28;20042;-59
2022/08/28 11:50:28;;;;;;;2.83;2.28;;;;;;;-148.16;100.00;58328.31;4967218;28;20078;-59
2022/08/28 11:53:30;;;;;;;4.15;2.55;;;;;;;-148.16;100.00;58328.31;4977488;28;20042;-59
2022/08/28 11:56:29;;;;;;;4.50;2.70;;;;;;;-148.16;100.00;58328.31;4965497;28;20122;-59
2022/08/28 11:59:23;;;;;;;4.88;2.40;;;;;;;-148.16;100.00;58328.31;4978499;28;20038;-59
2022/08/28 12:02:37;;;;;;;6.20;2.85;;;;;;;-148.16;100.00;58328.31;4988814;28;20049;-61
2022/08/28 12:05:31;;;;;;;5.63;2.97;;;;;;;-148.16;100.00;58328.31;5031787;28;20053;-59
2022/08/28 12:08:44;;;;;;;3.58;2.25;;;;;;;-148.16;100.00;58328.31;5031746;28;20103;-59
2022/08/28 12:11:38;;;;;;;4.35;2.67;;;;;;;-148.16;100.00;58328.31;5030504;28;20046;-59
2022/08/28 12:14:28;;;;;;;6.95;2.70;;;;;;;-148.16;100.00;58328.31;5039783;28;20079;-59
2022/08/28 12:17:17;;;;;;;;;;;;;;;-148.16;100.00;58328.31;5043747;28;20166;-59
2022/08/28 12:20:17;;;;;;;3.17;2.30;;;;;;;-148.16;100.00;58328.31;5037109;28;19923;-59
2022/08/28 12:23:23;;;;;;;5.43;2.92;;;;;;;-148.16;100.00;58328.31;5032538;28;20103;-58
2022/08/28 12:26:22;;;;;;;4.30;2.00;;;;;;;-148.16;100.00;58328.31;5042958;28;20120;-59
2022/08/28 12:29:35;;;;;;;3.55;2.50;;;;;;;-148.16;100.00;58328.31;5044139;28;20075;-59
2022/08/28 12:32:42;;;;;;;3.90;2.60;;;;;;;-148.16;100.00;58328.31;5015740;28;20133;-59
2022/08/28 12:35:29;;;;;;;2.97;2.30;;;;;;;-148.16;100.00;58328.31;5043597;28;20041;-58
2022/08/28 12:38:19;;;;;;;3.15;2.30;;;;;;;-148.16;100.00;58328.31;5040139;28;20120;-58
2022/08/28 12:41:13;;;;;;;5.15;2.42;;;;;;;-148.16;100.00;58328.31;5031970;28;20121;-59
2022/08/28 12:43:59;;;;;;;2.85;2.22;;;;;;;-148.16;100.00;58328.31;5031505;28;20041;-59
2022/08/28 12:46:44;;;;;;;4.35;2.58;;;;;;;-148.16;100.00;58328.31;5044340;28;20067;-59
2022/08/28 12:49:36;;;;;;;3.67;2.38;;;;;;;-148.16;100.00;58328.31;5031707;28;20110;-59
2022/08/28 12:52:24;;;;;;;3.22;2.17;;;;;;;-148.16;100.00;58328.31;5030869;28;20404;-59
2022/08/28 12:55:08;;;;;;;3.25;1.67;;;;;;;-148.16;100.00;58328.31;5034958;28;20450;-59
2022/08/28 12:57:53;;;;;;;3.10;1.98;;;;;;;-148.16;100.00;58328.31;5001993;28;20430;-59
2022/08/28 13:00:50;;;;;;;3.45;1.90;;;;;;;-148.16;100.00;58328.31;5038873;28;20136;-58